sensor_id;sensor_type;location;lat;lon;timestamp;P1;durP1;ratioP1;P2;durP2;ratioP2
75450;SDS011;64029;48.244;9.188;2024-03-23T00:52:13;5.23;;;3.37;;
75450;SDS011;64029;48.244;9.188;2024-03-23T00:54:40;4.90;;;3.80;;
75450;SDS011;64029;48.244;9.188;2024-03-23T00:57:06;7.03;;;4.00;;
75450;SDS011;64029;48.244;9.188;2024-03-23T00:59:33;4.93;;;3.40;;
75450;SDS011;64029;48.244;9.188;2024-03-23T01:01:59;9.13;;;3.70;;
75450;SDS011;64029;48.244;9.188;2024-03-23T01:04:26;8.60;;;4.07;;
75450;SDS011;64029;48.244;9.188;2024-03-23T01:06:52;4.60;;;3.57;;
75450;SDS011;64029;48.244;9.188;2024-03-23T01:09:20;5.63;;;3.83;;
75450;SDS011;64029;48.244;9.188;2024-03-23T01:11:46;5.43;;;3.77;;
75450;SDS011;64029;48.244;9.188;2024-03-23T01:14:12;4.33;;;3.83;;
75450;SDS011;64029;48.244;9.188;2024-03-23T01:16:38;10.30;;;3.83;;
75450;SDS011;64029;48.244;9.188;2024-03-23T01:19:05;3.40;;;3.10;;
75450;SDS011;64029;48.244;9.188;2024-03-23T01:21:31;3.60;;;3.30;;
75450;SDS011;64029;48.244;9.188;2024-03-23T01:23:58;4.80;;;3.63;;
75450;SDS011;64029;48.244;9.188;2024-03-23T01:26:25;5.60;;;3.63;;
75450;SDS011;64029;48.244;9.188;2024-03-23T01:28:52;4.97;;;4.30;;
75450;SDS011;64029;48.244;9.188;2024-03-23T01:31:18;4.97;;;4.00;;
75450;SDS011;64029;48.244;9.188;2024-03-23T01:33:45;8.27;;;4.10;;
75450;SDS011;64029;48.244;9.188;2024-03-23T01:36:11;7.27;;;3.80;;
75450;SDS011;64029;48.244;9.188;2024-03-23T01:38:38;5.90;;;3.50;;
75450;SDS011;64029;48.244;9.188;2024-03-23T01:41:03;4.30;;;3.70;;
75450;SDS011;64029;48.244;9.188;2024-03-23T01:43:32;4.87;;;3.73;;
75450;SDS011;64029;48.244;9.188;2024-03-23T01:45:57;4.40;;;3.90;;
75450;SDS011;64029;48.244;9.188;2024-03-23T01:48:25;3.90;;;2.90;;
75450;SDS011;64029;48.244;9.188;2024-03-23T01:50:50;5.57;;;3.73;;
75450;SDS011;64029;48.244;9.188;2024-03-23T01:53:18;5.80;;;3.50;;
75450;SDS011;64029;48.244;9.188;2024-03-23T01:55:46;4.47;;;4.00;;
75450;SDS011;64029;48.244;9.188;2024-03-23T01:58:13;5.10;;;3.50;;
75450;SDS011;64029;48.244;9.188;2024-03-23T02:00:41;6.40;;;4.33;;
75450;SDS011;64029;48.244;9.188;2024-03-23T02:03:21;5.73;;;3.73;;
75450;SDS011;64029;48.244;9.188;2024-03-23T02:05:48;6.60;;;4.10;;
75450;SDS011;64029;48.244;9.188;2024-03-23T02:08:15;6.73;;;3.80;;
75450;SDS011;64029;48.244;9.188;2024-03-23T02:10:42;14.17;;;4.50;;
75450;SDS011;64029;48.244;9.188;2024-03-23T02:13:09;4.93;;;4.40;;
75450;SDS011;64029;48.244;9.188;2024-03-23T02:15:35;7.53;;;4.20;;
75450;SDS011;64029;48.244;9.188;2024-03-23T02:18:03;4.33;;;3.77;;
75450;SDS011;64029;48.244;9.188;2024-03-23T02:20:30;5.63;;;3.77;;
75450;SDS011;64029;48.244;9.188;2024-03-23T02:22:58;5.90;;;3.80;;
75450;SDS011;64029;48.244;9.188;2024-03-23T02:25:24;5.00;;;3.83;;
75450;SDS011;64029;48.244;9.188;2024-03-23T02:27:50;5.67;;;4.00;;
75450;SDS011;64029;48.244;9.188;2024-03-23T02:30:19;4.43;;;3.87;;
75450;SDS011;64029;48.244;9.188;2024-03-23T02:32:46;4.70;;;3.53;;
75450;SDS011;64029;48.244;9.188;2024-03-23T02:35:12;4.47;;;3.70;;
75450;SDS011;64029;48.244;9.188;2024-03-23T02:37:39;3.77;;;3.17;;
75450;SDS011;64029;48.244;9.188;2024-03-23T02:40:06;12.00;;;4.57;;
75450;SDS011;64029;48.244;9.188;2024-03-23T02:42:34;5.67;;;3.27;;
75450;SDS011;64029;48.244;9.188;2024-03-23T02:45:00;8.20;;;3.40;;
75450;SDS011;64029;48.244;9.188;2024-03-23T02:47:29;3.70;;;3.40;;
75450;SDS011;64029;48.244;9.188;2024-03-23T02:49:55;3.97;;;3.43;;
75450;SDS011;64029;48.244;9.188;2024-03-23T02:52:22;4.50;;;3.60;;
75450;SDS011;64029;48.244;9.188;2024-03-23T02:54:48;3.63;;;2.93;;
75450;SDS011;64029;48.244;9.188;2024-03-23T02:57:17;4.70;;;3.33;;
75450;SDS011;64029;48.244;9.188;2024-03-23T02:59:42;3.20;;;2.90;;
75450;SDS011;64029;48.244;9.188;2024-03-23T03:02:11;3.93;;;3.00;;
75450;SDS011;64029;48.244;9.188;2024-03-23T03:04:38;5.27;;;3.67;;
75450;SDS011;64029;48.244;9.188;2024-03-23T03:07:05;4.23;;;3.53;;
75450;SDS011;64029;48.244;9.188;2024-03-23T03:09:31;6.37;;;3.77;;
75450;SDS011;64029;48.244;9.188;2024-03-23T03:11:58;4.10;;;3.70;;
75450;SDS011;64029;48.244;9.188;2024-03-23T03:14:25;6.97;;;3.80;;
75450;SDS011;64029;48.244;9.188;2024-03-23T03:16:53;6.07;;;3.87;;
75450;SDS011;64029;48.244;9.188;2024-03-23T03:19:19;4.67;;;3.33;;
75450;SDS011;64029;48.244;9.188;2024-03-23T03:21:46;4.53;;;3.63;;
75450;SDS011;64029;48.244;9.188;2024-03-23T03:24:12;5.53;;;3.70;;
75450;SDS011;64029;48.244;9.188;2024-03-23T03:26:40;5.47;;;3.70;;
75450;SDS011;64029;48.244;9.188;2024-03-23T03:29:05;3.50;;;3.20;;
75450;SDS011;64029;48.244;9.188;2024-03-23T03:31:34;5.17;;;3.23;;
75450;SDS011;64029;48.244;9.188;2024-03-23T03:33:59;5.13;;;3.30;;
75450;SDS011;64029;48.244;9.188;2024-03-23T03:36:27;3.83;;;3.40;;
75450;SDS011;64029;48.244;9.188;2024-03-23T03:38:53;5.80;;;3.73;;
75450;SDS011;64029;48.244;9.188;2024-03-23T03:41:20;3.30;;;3.00;;
75450;SDS011;64029;48.244;9.188;2024-03-23T03:43:46;6.63;;;3.63;;
75450;SDS011;64029;48.244;9.188;2024-03-23T03:46:13;4.40;;;3.37;;
75450;SDS011;64029;48.244;9.188;2024-03-23T03:48:40;6.70;;;3.60;;
75450;SDS011;64029;48.244;9.188;2024-03-23T03:51:09;4.17;;;3.30;;
75450;SDS011;64029;48.244;9.188;2024-03-23T03:53:35;4.87;;;2.80;;
75450;SDS011;64029;48.244;9.188;2024-03-23T03:56:02;5.73;;;3.30;;
75450;SDS011;64029;48.244;9.188;2024-03-23T03:58:28;3.70;;;3.17;;
75450;SDS011;64029;48.244;9.188;2024-03-23T04:00:55;4.60;;;3.40;;
75450;SDS011;64029;48.244;9.188;2024-03-23T04:03:21;5.60;;;3.10;;
75450;SDS011;64029;48.244;9.188;2024-03-23T04:05:51;4.50;;;3.40;;
75450;SDS011;64029;48.244;9.188;2024-03-23T04:08:17;3.60;;;2.83;;
75450;SDS011;64029;48.244;9.188;2024-03-23T04:10:44;3.90;;;3.10;;
75450;SDS011;64029;48.244;9.188;2024-03-23T04:13:10;4.60;;;3.20;;
75450;SDS011;64029;48.244;9.188;2024-03-23T04:15:38;4.93;;;3.77;;
75450;SDS011;64029;48.244;9.188;2024-03-23T04:18:04;5.27;;;3.23;;
75450;SDS011;64029;48.244;9.188;2024-03-23T04:20:31;4.70;;;2.70;;
75450;SDS011;64029;48.244;9.188;2024-03-23T04:22:59;4.27;;;3.13;;
75450;SDS011;64029;48.244;9.188;2024-03-23T04:25:26;6.03;;;2.80;;
75450;SDS011;64029;48.244;9.188;2024-03-23T04:27:52;3.70;;;3.30;;
75450;SDS011;64029;48.244;9.188;2024-03-23T04:30:19;3.13;;;2.63;;
75450;SDS011;64029;48.244;9.188;2024-03-23T04:32:46;5.70;;;2.90;;
75450;SDS011;64029;48.244;9.188;2024-03-23T04:35:13;4.73;;;2.90;;
75450;SDS011;64029;48.244;9.188;2024-03-23T04:37:38;3.00;;;2.70;;
75450;SDS011;64029;48.244;9.188;2024-03-23T04:40:08;3.63;;;3.33;;
75450;SDS011;64029;48.244;9.188;2024-03-23T04:42:36;5.20;;;3.00;;
75450;SDS011;64029;48.244;9.188;2024-03-23T04:45:04;3.90;;;2.83;;
75450;SDS011;64029;48.244;9.188;2024-03-23T04:47:32;3.67;;;3.17;;
75450;SDS011;64029;48.244;9.188;2024-03-23T04:50:00;4.40;;;3.07;;
75450;SDS011;64029;48.244;9.188;2024-03-23T04:52:27;3.53;;;2.80;;
75450;SDS011;64029;48.244;9.188;2024-03-23T04:54:53;3.20;;;2.90;;
75450;SDS011;64029;48.244;9.188;2024-03-23T04:57:22;3.30;;;2.80;;
75450;SDS011;64029;48.244;9.188;2024-03-23T04:59:49;4.03;;;2.77;;
75450;SDS011;64029;48.244;9.188;2024-03-23T05:02:15;3.67;;;3.03;;
75450;SDS011;64029;48.244;9.188;2024-03-23T05:04:42;3.43;;;2.93;;
75450;SDS011;64029;48.244;9.188;2024-03-23T05:07:07;2.90;;;2.60;;
75450;SDS011;64029;48.244;9.188;2024-03-23T05:09:34;4.00;;;3.23;;
75450;SDS011;64029;48.244;9.188;2024-03-23T05:12:00;3.83;;;3.20;;
75450;SDS011;64029;48.244;9.188;2024-03-23T05:14:29;6.17;;;3.20;;
75450;SDS011;64029;48.244;9.188;2024-03-23T05:16:54;3.70;;;3.20;;
75450;SDS011;64029;48.244;9.188;2024-03-23T05:19:22;3.83;;;2.83;;
75450;SDS011;64029;48.244;9.188;2024-03-23T05:21:47;3.00;;;2.70;;
75450;SDS011;64029;48.244;9.188;2024-03-23T05:24:14;6.37;;;4.80;;
75450;SDS011;64029;48.244;9.188;2024-03-23T05:26:40;5.83;;;3.77;;
75450;SDS011;64029;48.244;9.188;2024-03-23T05:29:07;8.43;;;4.80;;
75450;SDS011;64029;48.244;9.188;2024-03-23T05:31:37;10.20;;;6.07;;
75450;SDS011;64029;48.244;9.188;2024-03-23T05:34:06;8.77;;;5.33;;
75450;SDS011;64029;48.244;9.188;2024-03-23T05:36:32;10.57;;;6.40;;
75450;SDS011;64029;48.244;9.188;2024-03-23T05:38:59;13.13;;;7.03;;
75450;SDS011;64029;48.244;9.188;2024-03-23T05:41:25;12.43;;;7.43;;
75450;SDS011;64029;48.244;9.188;2024-03-23T05:43:52;8.93;;;4.60;;
75450;SDS011;64029;48.244;9.188;2024-03-23T05:46:18;6.73;;;3.83;;
75450;SDS011;64029;48.244;9.188;2024-03-23T05:48:46;12.80;;;7.13;;
75450;SDS011;64029;48.244;9.188;2024-03-23T05:51:12;6.37;;;3.80;;
75450;SDS011;64029;48.244;9.188;2024-03-23T05:53:39;10.07;;;6.60;;
75450;SDS011;64029;48.244;9.188;2024-03-23T05:56:05;8.50;;;6.63;;
75450;SDS011;64029;48.244;9.188;2024-03-23T05:58:32;10.40;;;6.77;;
75450;SDS011;64029;48.244;9.188;2024-03-23T06:00:58;8.30;;;5.23;;
75450;SDS011;64029;48.244;9.188;2024-03-23T06:03:26;8.60;;;5.83;;
75450;SDS011;64029;48.244;9.188;2024-03-23T06:05:53;12.40;;;6.33;;
75450;SDS011;64029;48.244;9.188;2024-03-23T06:08:20;9.30;;;5.40;;
75450;SDS011;64029;48.244;9.188;2024-03-23T06:10:46;5.20;;;3.87;;
75450;SDS011;64029;48.244;9.188;2024-03-23T06:13:13;4.60;;;3.23;;
75450;SDS011;64029;48.244;9.188;2024-03-23T06:15:39;3.80;;;3.20;;
75450;SDS011;64029;48.244;9.188;2024-03-23T06:18:06;4.10;;;3.70;;
75450;SDS011;64029;48.244;9.188;2024-03-23T06:20:32;3.17;;;2.90;;
75450;SDS011;64029;48.244;9.188;2024-03-23T06:23:01;4.13;;;2.90;;
75450;SDS011;64029;48.244;9.188;2024-03-23T06:25:27;4.27;;;2.70;;
75450;SDS011;64029;48.244;9.188;2024-03-23T06:27:56;3.67;;;2.63;;
75450;SDS011;64029;48.244;9.188;2024-03-23T06:30:23;3.10;;;2.37;;
75450;SDS011;64029;48.244;9.188;2024-03-23T06:32:51;4.00;;;2.47;;
75450;SDS011;64029;48.244;9.188;2024-03-23T06:35:18;2.90;;;2.60;;
75450;SDS011;64029;48.244;9.188;2024-03-23T06:37:45;4.77;;;3.63;;
75450;SDS011;64029;48.244;9.188;2024-03-23T06:40:12;5.20;;;4.43;;
75450;SDS011;64029;48.244;9.188;2024-03-23T06:42:39;6.77;;;4.67;;
75450;SDS011;64029;48.244;9.188;2024-03-23T06:45:05;7.73;;;5.00;;
75450;SDS011;64029;48.244;9.188;2024-03-23T06:47:32;9.53;;;6.00;;
75450;SDS011;64029;48.244;9.188;2024-03-23T06:49:59;9.30;;;6.83;;
75450;SDS011;64029;48.244;9.188;2024-03-23T06:52:27;9.83;;;7.00;;
75450;SDS011;64029;48.244;9.188;2024-03-23T06:54:53;10.27;;;7.67;;
75450;SDS011;64029;48.244;9.188;2024-03-23T06:57:22;11.90;;;7.50;;
75450;SDS011;64029;48.244;9.188;2024-03-23T06:59:48;10.80;;;6.57;;
75450;SDS011;64029;48.244;9.188;2024-03-23T07:02:15;10.70;;;6.87;;
75450;SDS011;64029;48.244;9.188;2024-03-23T07:04:41;9.90;;;7.47;;
75450;SDS011;64029;48.244;9.188;2024-03-23T07:07:08;10.30;;;7.70;;
75450;SDS011;64029;48.244;9.188;2024-03-23T07:09:34;13.97;;;7.87;;
75450;SDS011;64029;48.244;9.188;2024-03-23T07:12:02;12.43;;;7.80;;
75450;SDS011;64029;48.244;9.188;2024-03-23T07:14:31;12.80;;;7.83;;
75450;SDS011;64029;48.244;9.188;2024-03-23T07:16:58;12.67;;;8.13;;
75450;SDS011;64029;48.244;9.188;2024-03-23T07:19:24;13.43;;;8.00;;
75450;SDS011;64029;48.244;9.188;2024-03-23T07:21:51;12.30;;;7.80;;
75450;SDS011;64029;48.244;9.188;2024-03-23T07:24:17;9.20;;;6.87;;
75450;SDS011;64029;48.244;9.188;2024-03-23T07:26:43;5.43;;;4.17;;
75450;SDS011;64029;48.244;9.188;2024-03-23T07:29:10;5.43;;;3.67;;
75450;SDS011;64029;48.244;9.188;2024-03-23T07:31:38;3.93;;;2.80;;
75450;SDS011;64029;48.244;9.188;2024-03-23T07:34:04;2.60;;;2.40;;
75450;SDS011;64029;48.244;9.188;2024-03-23T07:36:31;2.73;;;2.27;;
75450;SDS011;64029;48.244;9.188;2024-03-23T07:38:57;3.10;;;2.70;;
75450;SDS011;64029;48.244;9.188;2024-03-23T07:41:24;4.20;;;2.87;;
75450;SDS011;64029;48.244;9.188;2024-03-23T07:43:50;3.43;;;2.63;;
75450;SDS011;64029;48.244;9.188;2024-03-23T07:46:17;5.03;;;2.40;;
75450;SDS011;64029;48.244;9.188;2024-03-23T07:48:45;3.83;;;2.70;;
75450;SDS011;64029;48.244;9.188;2024-03-23T07:51:15;2.90;;;2.17;;
75450;SDS011;64029;48.244;9.188;2024-03-23T07:53:42;4.57;;;2.77;;
75450;SDS011;64029;48.244;9.188;2024-03-23T07:56:11;4.67;;;3.20;;
75450;SDS011;64029;48.244;9.188;2024-03-23T07:58:37;3.23;;;2.07;;
75450;SDS011;64029;48.244;9.188;2024-03-23T08:01:05;3.20;;;2.27;;
75450;SDS011;64029;48.244;9.188;2024-03-23T08:03:33;3.70;;;2.17;;
75450;SDS011;64029;48.244;9.188;2024-03-23T08:06:07;2.87;;;2.30;;
75450;SDS011;64029;48.244;9.188;2024-03-23T08:08:34;2.03;;;1.60;;
75450;SDS011;64029;48.244;9.188;2024-03-23T08:11:01;2.07;;;1.87;;
75450;SDS011;64029;48.244;9.188;2024-03-23T08:13:27;2.77;;;1.60;;
75450;SDS011;64029;48.244;9.188;2024-03-23T08:15:56;1.60;;;1.27;;
75450;SDS011;64029;48.244;9.188;2024-03-23T08:18:22;1.60;;;1.50;;
75450;SDS011;64029;48.244;9.188;2024-03-23T08:20:55;1.27;;;1.17;;
75450;SDS011;64029;48.244;9.188;2024-03-23T08:23:22;1.30;;;1.20;;
75450;SDS011;64029;48.244;9.188;2024-03-23T08:25:50;1.77;;;1.40;;
75450;SDS011;64029;48.244;9.188;2024-03-23T08:28:16;1.33;;;0.97;;
75450;SDS011;64029;48.244;9.188;2024-03-23T08:30:43;1.50;;;1.40;;
75450;SDS011;64029;48.244;9.188;2024-03-23T08:33:09;1.30;;;1.20;;
75450;SDS011;64029;48.244;9.188;2024-03-23T08:35:36;2.83;;;1.20;;
75450;SDS011;64029;48.244;9.188;2024-03-23T08:38:02;1.33;;;1.00;;
75450;SDS011;64029;48.244;9.188;2024-03-23T08:40:30;1.60;;;1.20;;
75450;SDS011;64029;48.244;9.188;2024-03-23T08:42:56;2.43;;;1.20;;
75450;SDS011;64029;48.244;9.188;2024-03-23T08:45:23;2.40;;;1.40;;
75450;SDS011;64029;48.244;9.188;2024-03-23T08:47:49;3.93;;;1.50;;
75450;SDS011;64029;48.244;9.188;2024-03-23T08:50:16;2.03;;;1.57;;
75450;SDS011;64029;48.244;9.188;2024-03-23T08:52:42;2.37;;;1.77;;
75450;SDS011;64029;48.244;9.188;2024-03-23T08:55:10;4.10;;;1.60;;
75450;SDS011;64029;48.244;9.188;2024-03-23T08:57:37;2.70;;;2.10;;
75450;SDS011;64029;48.244;9.188;2024-03-23T09:00:04;3.30;;;2.00;;
75450;SDS011;64029;48.244;9.188;2024-03-23T09:02:33;3.30;;;2.10;;
75450;SDS011;64029;48.244;9.188;2024-03-23T09:05:00;3.57;;;2.03;;
75450;SDS011;64029;48.244;9.188;2024-03-23T09:07:29;2.30;;;2.10;;
75450;SDS011;64029;48.244;9.188;2024-03-23T09:09:57;3.50;;;2.67;;
75450;SDS011;64029;48.244;9.188;2024-03-23T09:12:22;3.90;;;2.23;;
75450;SDS011;64029;48.244;9.188;2024-03-23T09:14:51;3.90;;;2.10;;
75450;SDS011;64029;48.244;9.188;2024-03-23T09:17:18;4.93;;;2.50;;
75450;SDS011;64029;48.244;9.188;2024-03-23T09:19:45;6.53;;;2.63;;
75450;SDS011;64029;48.244;9.188;2024-03-23T09:22:11;6.47;;;2.47;;
75450;SDS011;64029;48.244;9.188;2024-03-23T09:24:38;4.30;;;2.33;;
75450;SDS011;64029;48.244;9.188;2024-03-23T09:27:04;3.97;;;2.20;;
75450;SDS011;64029;48.244;9.188;2024-03-23T09:29:31;3.70;;;2.60;;
75450;SDS011;64029;48.244;9.188;2024-03-23T09:31:59;3.43;;;2.80;;
75450;SDS011;64029;48.244;9.188;2024-03-23T09:34:26;4.33;;;2.30;;
75450;SDS011;64029;48.244;9.188;2024-03-23T09:36:52;6.23;;;2.70;;
75450;SDS011;64029;48.244;9.188;2024-03-23T09:39:18;3.20;;;2.80;;
75450;SDS011;64029;48.244;9.188;2024-03-23T09:41:45;5.97;;;3.10;;
75450;SDS011;64029;48.244;9.188;2024-03-23T09:44:12;5.77;;;2.70;;
75450;SDS011;64029;48.244;9.188;2024-03-23T09:46:38;4.60;;;2.70;;
75450;SDS011;64029;48.244;9.188;2024-03-23T09:49:06;7.10;;;3.53;;
75450;SDS011;64029;48.244;9.188;2024-03-23T09:51:35;3.87;;;2.80;;
75450;SDS011;64029;48.244;9.188;2024-03-23T09:54:02;6.67;;;3.87;;
75450;SDS011;64029;48.244;9.188;2024-03-23T09:56:28;5.67;;;3.70;;
75450;SDS011;64029;48.244;9.188;2024-03-23T09:59:00;5.50;;;3.47;;
75450;SDS011;64029;48.244;9.188;2024-03-23T10:01:26;3.77;;;3.00;;
75450;SDS011;64029;48.244;9.188;2024-03-23T10:03:53;7.40;;;3.47;;
75450;SDS011;64029;48.244;9.188;2024-03-23T10:06:22;4.57;;;2.67;;
75450;SDS011;64029;48.244;9.188;2024-03-23T10:08:51;8.90;;;4.00;;
75450;SDS011;64029;48.244;9.188;2024-03-23T10:11:18;5.53;;;3.37;;
75450;SDS011;64029;48.244;9.188;2024-03-23T10:13:46;7.70;;;3.60;;
75450;SDS011;64029;48.244;9.188;2024-03-23T10:16:12;8.33;;;3.67;;
75450;SDS011;64029;48.244;9.188;2024-03-23T10:18:48;4.67;;;3.37;;
75450;SDS011;64029;48.244;9.188;2024-03-23T10:21:15;7.03;;;3.67;;
75450;SDS011;64029;48.244;9.188;2024-03-23T10:23:44;13.80;;;6.03;;
75450;SDS011;64029;48.244;9.188;2024-03-23T10:26:13;5.70;;;3.90;;
75450;SDS011;64029;48.244;9.188;2024-03-23T10:28:50;4.90;;;4.07;;
75450;SDS011;64029;48.244;9.188;2024-03-23T10:31:22;8.10;;;3.43;;
75450;SDS011;64029;48.244;9.188;2024-03-23T10:33:49;4.97;;;3.37;;
75450;SDS011;64029;48.244;9.188;2024-03-23T10:36:15;4.80;;;3.37;;
75450;SDS011;64029;48.244;9.188;2024-03-23T10:38:44;5.87;;;3.27;;
75450;SDS011;64029;48.244;9.188;2024-03-23T10:41:11;8.37;;;3.67;;
75450;SDS011;64029;48.244;9.188;2024-03-23T10:43:38;7.93;;;3.87;;
75450;SDS011;64029;48.244;9.188;2024-03-23T10:46:04;9.27;;;4.63;;
75450;SDS011;64029;48.244;9.188;2024-03-23T10:48:32;7.43;;;4.27;;
75450;SDS011;64029;48.244;9.188;2024-03-23T10:50:58;6.83;;;3.50;;
75450;SDS011;64029;48.244;9.188;2024-03-23T10:53:26;8.40;;;3.60;;
75450;SDS011;64029;48.244;9.188;2024-03-23T10:55:55;15.80;;;4.40;;
75450;SDS011;64029;48.244;9.188;2024-03-23T10:58:23;7.93;;;3.47;;
75450;SDS011;64029;48.244;9.188;2024-03-23T11:00:52;8.90;;;3.93;;
75450;SDS011;64029;48.244;9.188;2024-03-23T11:03:33;5.43;;;3.10;;
75450;SDS011;64029;48.244;9.188;2024-03-23T11:05:59;3.03;;;2.73;;
75450;SDS011;64029;48.244;9.188;2024-03-23T11:08:31;9.57;;;4.17;;
75450;SDS011;64029;48.244;9.188;2024-03-23T11:13:47;6.90;;;3.10;;
75450;SDS011;64029;48.244;9.188;2024-03-23T11:16:17;7.13;;;3.37;;
75450;SDS011;64029;48.244;9.188;2024-03-23T11:18:48;8.33;;;3.20;;
75450;SDS011;64029;48.244;9.188;2024-03-23T11:24:15;5.80;;;3.17;;
75450;SDS011;64029;48.244;9.188;2024-03-23T11:26:42;5.43;;;3.13;;
75450;SDS011;64029;48.244;9.188;2024-03-23T11:29:09;5.90;;;3.20;;
75450;SDS011;64029;48.244;9.188;2024-03-23T11:31:36;6.07;;;3.50;;
75450;SDS011;64029;48.244;9.188;2024-03-23T11:34:03;12.60;;;2.73;;
75450;SDS011;64029;48.244;9.188;2024-03-23T11:36:30;6.90;;;2.90;;
75450;SDS011;64029;48.244;9.188;2024-03-23T11:38:57;6.73;;;3.93;;
75450;SDS011;64029;48.244;9.188;2024-03-23T11:41:23;5.47;;;2.70;;
75450;SDS011;64029;48.244;9.188;2024-03-23T11:43:52;8.70;;;3.20;;
75450;SDS011;64029;48.244;9.188;2024-03-23T11:46:21;10.47;;;3.77;;
75450;SDS011;64029;48.244;9.188;2024-03-23T11:48:49;3.83;;;2.67;;
75450;SDS011;64029;48.244;9.188;2024-03-23T11:51:16;4.57;;;2.60;;
75450;SDS011;64029;48.244;9.188;2024-03-23T11:53:43;4.83;;;2.10;;
75450;SDS011;64029;48.244;9.188;2024-03-23T11:56:09;3.37;;;2.20;;
75450;SDS011;64029;48.244;9.188;2024-03-23T11:58:36;2.60;;;2.10;;
75450;SDS011;64029;48.244;9.188;2024-03-23T12:01:03;4.50;;;2.20;;
75450;SDS011;64029;48.244;9.188;2024-03-23T12:03:31;4.20;;;2.30;;
75450;SDS011;64029;48.244;9.188;2024-03-23T12:05:59;3.27;;;1.70;;
75450;SDS011;64029;48.244;9.188;2024-03-23T12:08:28;4.27;;;2.23;;
75450;SDS011;64029;48.244;9.188;2024-03-23T12:11:04;2.70;;;1.47;;
75450;SDS011;64029;48.244;9.188;2024-03-23T12:13:32;2.77;;;1.80;;
75450;SDS011;64029;48.244;9.188;2024-03-23T12:16:09;3.00;;;1.30;;
75450;SDS011;64029;48.244;9.188;2024-03-23T12:18:39;2.80;;;1.47;;
75450;SDS011;64029;48.244;9.188;2024-03-23T12:21:05;4.60;;;1.60;;
75450;SDS011;64029;48.244;9.188;2024-03-23T12:23:33;2.13;;;1.70;;
75450;SDS011;64029;48.244;9.188;2024-03-23T12:25:59;1.50;;;1.40;;
75450;SDS011;64029;48.244;9.188;2024-03-23T12:28:27;1.77;;;1.40;;
75450;SDS011;64029;48.244;9.188;2024-03-23T12:30:53;1.37;;;1.27;;
75450;SDS011;64029;48.244;9.188;2024-03-23T12:33:21;3.70;;;2.50;;
75450;SDS011;64029;48.244;9.188;2024-03-23T12:35:47;3.10;;;1.73;;
75450;SDS011;64029;48.244;9.188;2024-03-23T12:38:14;3.10;;;1.50;;
75450;SDS011;64029;48.244;9.188;2024-03-23T12:40:40;7.60;;;2.43;;
75450;SDS011;64029;48.244;9.188;2024-03-23T12:43:07;5.27;;;2.97;;
75450;SDS011;64029;48.244;9.188;2024-03-23T12:45:33;2.97;;;2.10;;
75450;SDS011;64029;48.244;9.188;2024-03-23T12:48:00;3.03;;;2.20;;
75450;SDS011;64029;48.244;9.188;2024-03-23T12:50:27;6.83;;;3.00;;
75450;SDS011;64029;48.244;9.188;2024-03-23T12:52:54;3.43;;;2.33;;
75450;SDS011;64029;48.244;9.188;2024-03-23T12:55:19;9.40;;;4.10;;
75450;SDS011;64029;48.244;9.188;2024-03-23T12:57:46;5.50;;;2.60;;
75450;SDS011;64029;48.244;9.188;2024-03-23T13:00:13;4.13;;;2.43;;
75450;SDS011;64029;48.244;9.188;2024-03-23T13:02:42;7.90;;;3.83;;
75450;SDS011;64029;48.244;9.188;2024-03-23T13:05:08;3.33;;;2.60;;
75450;SDS011;64029;48.244;9.188;2024-03-23T13:07:36;7.03;;;3.03;;
75450;SDS011;64029;48.244;9.188;2024-03-23T13:10:03;6.50;;;2.27;;
75450;SDS011;64029;48.244;9.188;2024-03-23T13:12:31;6.90;;;3.10;;
75450;SDS011;64029;48.244;9.188;2024-03-23T13:14:58;8.53;;;2.67;;
75450;SDS011;64029;48.244;9.188;2024-03-23T13:17:25;4.00;;;2.20;;
75450;SDS011;64029;48.244;9.188;2024-03-23T13:19:52;6.63;;;2.50;;
75450;SDS011;64029;48.244;9.188;2024-03-23T13:22:18;4.80;;;2.30;;
75450;SDS011;64029;48.244;9.188;2024-03-23T13:24:46;4.93;;;2.50;;
75450;SDS011;64029;48.244;9.188;2024-03-23T13:27:13;10.90;;;2.37;;
75450;SDS011;64029;48.244;9.188;2024-03-23T13:29:39;3.97;;;2.47;;
75450;SDS011;64029;48.244;9.188;2024-03-23T13:32:06;5.80;;;2.13;;
75450;SDS011;64029;48.244;9.188;2024-03-23T13:34:32;4.10;;;1.90;;
75450;SDS011;64029;48.244;9.188;2024-03-23T13:37:00;6.53;;;2.00;;
75450;SDS011;64029;48.244;9.188;2024-03-23T13:39:26;5.40;;;2.10;;
75450;SDS011;64029;48.244;9.188;2024-03-23T13:41:54;2.93;;;1.93;;
75450;SDS011;64029;48.244;9.188;2024-03-23T13:44:21;2.40;;;1.93;;
75450;SDS011;64029;48.244;9.188;2024-03-23T13:46:48;4.77;;;1.90;;
75450;SDS011;64029;48.244;9.188;2024-03-23T13:49:20;4.47;;;2.00;;
75450;SDS011;64029;48.244;9.188;2024-03-23T13:51:51;5.90;;;2.00;;
75450;SDS011;64029;48.244;9.188;2024-03-23T13:54:18;3.80;;;2.00;;
75450;SDS011;64029;48.244;9.188;2024-03-23T13:56:45;6.27;;;2.27;;
75450;SDS011;64029;48.244;9.188;2024-03-23T13:59:14;4.40;;;2.57;;
75450;SDS011;64029;48.244;9.188;2024-03-23T14:01:40;3.73;;;2.27;;
75450;SDS011;64029;48.244;9.188;2024-03-23T14:04:07;8.07;;;2.90;;
75450;SDS011;64029;48.244;9.188;2024-03-23T14:06:34;5.03;;;2.47;;
75450;SDS011;64029;48.244;9.188;2024-03-23T14:09:00;4.67;;;2.77;;
75450;SDS011;64029;48.244;9.188;2024-03-23T14:11:28;5.33;;;2.00;;
75450;SDS011;64029;48.244;9.188;2024-03-23T14:13:54;5.23;;;2.13;;
75450;SDS011;64029;48.244;9.188;2024-03-23T14:16:23;6.77;;;2.60;;
75450;SDS011;64029;48.244;9.188;2024-03-23T14:18:48;3.40;;;2.40;;
75450;SDS011;64029;48.244;9.188;2024-03-23T14:21:16;8.93;;;3.10;;
75450;SDS011;64029;48.244;9.188;2024-03-23T14:23:42;4.20;;;2.03;;
75450;SDS011;64029;48.244;9.188;2024-03-23T14:26:09;4.87;;;2.40;;
75450;SDS011;64029;48.244;9.188;2024-03-23T14:28:35;5.33;;;2.20;;
75450;SDS011;64029;48.244;9.188;2024-03-23T14:31:01;1.90;;;1.50;;
75450;SDS011;64029;48.244;9.188;2024-03-23T14:33:36;3.67;;;2.00;;
75450;SDS011;64029;48.244;9.188;2024-03-23T14:36:03;5.60;;;1.90;;
75450;SDS011;64029;48.244;9.188;2024-03-23T14:38:30;4.03;;;1.70;;
75450;SDS011;64029;48.244;9.188;2024-03-23T14:40:57;3.53;;;2.27;;
75450;SDS011;64029;48.244;9.188;2024-03-23T14:43:25;3.20;;;1.70;;
75450;SDS011;64029;48.244;9.188;2024-03-23T14:46:06;1.73;;;1.50;;
75450;SDS011;64029;48.244;9.188;2024-03-23T14:48:34;2.87;;;1.60;;
75450;SDS011;64029;48.244;9.188;2024-03-23T14:51:02;3.30;;;2.10;;
75450;SDS011;64029;48.244;9.188;2024-03-23T14:53:31;2.80;;;1.77;;
75450;SDS011;64029;48.244;9.188;2024-03-23T14:55:57;3.60;;;1.57;;
75450;SDS011;64029;48.244;9.188;2024-03-23T14:58:25;5.30;;;1.53;;
75450;SDS011;64029;48.244;9.188;2024-03-23T15:00:51;2.70;;;1.40;;
75450;SDS011;64029;48.244;9.188;2024-03-23T15:03:18;1.50;;;1.20;;
75450;SDS011;64029;48.244;9.188;2024-03-23T15:05:51;3.73;;;1.53;;
75450;SDS011;64029;48.244;9.188;2024-03-23T15:08:20;6.27;;;2.17;;
75450;SDS011;64029;48.244;9.188;2024-03-23T15:10:46;2.90;;;1.70;;
75450;SDS011;64029;48.244;9.188;2024-03-23T15:13:13;5.30;;;3.10;;
75450;SDS011;64029;48.244;9.188;2024-03-23T15:15:39;2.67;;;1.97;;
75450;SDS011;64029;48.244;9.188;2024-03-23T15:18:09;2.50;;;1.20;;
75450;SDS011;64029;48.244;9.188;2024-03-23T15:20:35;3.00;;;1.40;;
75450;SDS011;64029;48.244;9.188;2024-03-23T15:23:02;6.33;;;2.73;;
75450;SDS011;64029;48.244;9.188;2024-03-23T15:25:29;7.80;;;3.10;;
75450;SDS011;64029;48.244;9.188;2024-03-23T15:27:57;4.70;;;2.67;;
75450;SDS011;64029;48.244;9.188;2024-03-23T15:30:24;4.30;;;1.97;;
75450;SDS011;64029;48.244;9.188;2024-03-23T15:32:51;3.10;;;1.40;;
75450;SDS011;64029;48.244;9.188;2024-03-23T15:35:17;4.10;;;2.00;;
75450;SDS011;64029;48.244;9.188;2024-03-23T15:37:46;3.83;;;1.13;;
75450;SDS011;64029;48.244;9.188;2024-03-23T15:40:12;1.40;;;1.30;;
75450;SDS011;64029;48.244;9.188;2024-03-23T15:42:40;2.57;;;1.60;;